Time;durP1;ratioP1;P1;durP2;ratioP2;P2;SDS_P1;SDS_P2;PMS_P1;PMS_P2;Temp;Humidity;BMP_temperature;BMP_pressure;BME280_temperature;BME280_humidity;BME280_pressure;Samples;Min_cycle;Max_cycle;Signal;HPM_P1;HPM_P2
2022/12/04 00:01:20;;;;;;;10.90;8.87;;;;;;;8.52;97.68;95791.41;4915540;29;20810;-81
2022/12/04 00:03:47;;;;;;;15.83;10.67;;;;;;;8.57;96.91;95797.19;4915662;29;20955;-81
2022/12/04 00:06:16;;;;;;;15.67;10.33;;;;;;;8.59;97.47;95791.84;4915419;29;20487;-81
2022/12/04 00:08:44;;;;;;;14.83;10.03;;;;;;;8.60;96.69;95799.59;4915700;29;20827;-82
2022/12/04 00:11:12;;;;;;;16.10;11.27;;;;;;;8.61;96.99;95801.28;4915273;29;20449;-82
2022/12/04 00:13:41;;;;;;;18.83;11.57;;;;;;;8.61;96.98;95800.44;4918743;29;20980;-82
2022/12/04 00:16:12;;;;;;;11.30;8.63;;;;;;;8.56;97.36;95803.34;4919232;29;20451;-82
2022/12/04 00:18:41;;;;;;;12.10;8.10;;;;;;;8.47;96.99;95801.31;4919494;29;20481;-81
2022/12/04 00:21:11;;;;;;;13.00;9.10;;;;;;;8.46;97.87;95807.47;4918927;29;20456;-82
2022/12/04 00:23:39;;;;;;;12.23;8.10;;;;;;;8.49;98.17;95809.06;4919131;29;20451;-82
2022/12/04 00:26:08;;;;;;;10.90;8.07;;;;;;;8.48;97.85;95817.84;4918985;29;20451;-82
2022/12/04 00:28:36;;;;;;;11.87;8.50;;;;;;;8.49;98.31;95809.91;4919018;29;20483;-82
2022/12/04 00:31:05;;;;;;;9.50;7.50;;;;;;;8.47;97.80;95803.94;4918830;29;20507;-82
2022/12/04 00:33:32;;;;;;;8.90;7.07;;;;;;;8.43;97.77;95817.28;4918747;29;20499;-82
2022/12/04 00:36:03;;;;;;;9.20;6.63;;;;;;;8.44;97.57;95809.34;4918838;29;20452;-82
2022/12/04 00:38:30;;;;;;;8.53;7.10;;;;;;;8.48;97.72;95803.00;4900784;29;20507;-82
2022/12/04 00:40:56;;;;;;;9.20;7.07;;;;;;;8.51;97.74;95801.94;4918705;29;20473;-82
2022/12/04 00:43:24;;;;;;;10.00;7.20;;;;;;;8.48;97.09;95821.28;4918821;29;20468;-82
2022/12/04 00:45:51;;;;;;;7.50;6.20;;;;;;;8.45;97.93;95818.03;4918503;29;20861;-83
2022/12/04 00:48:18;;;;;;;6.60;5.87;;;;;;;8.46;98.08;95814.47;4918692;29;20484;-82
2022/12/04 00:50:45;;;;;;;7.10;5.80;;;;;;;8.44;97.61;95806.72;4918479;29;20476;-82
2022/12/04 00:53:14;;;;;;;9.00;6.10;;;;;;;8.41;97.79;95814.78;4918626;29;20450;-83
2022/12/04 00:55:41;;;;;;;6.73;6.13;;;;;;;8.43;98.39;95812.91;4918347;29;20467;-82
2022/12/04 00:58:08;;;;;;;8.00;6.83;;;;;;;8.43;97.41;95812.91;4918671;29;20464;-82
2022/12/04 01:00:35;;;;;;;8.43;6.40;;;;;;;8.45;98.11;95816.25;4918482;29;20470;-82
2022/12/04 01:03:02;;;;;;;7.83;6.80;;;;;;;8.35;97.73;95821.19;4918435;29;20919;-82
2022/12/04 01:05:29;;;;;;;10.17;7.47;;;;;;;8.27;98.29;95825.19;4918368;29;20866;-82
2022/12/04 01:07:56;;;;;;;13.73;9.23;;;;;;;8.27;98.73;95820.78;4918294;29;20495;-82
2022/12/04 01:10:24;;;;;;;13.50;8.63;;;;;;;8.29;99.43;95820.69;4918216;29;20474;-82
2022/12/04 01:12:52;;;;;;;13.50;10.80;;;;;;;8.24;99.06;95809.69;4917951;29;20455;-82
2022/12/04 01:15:20;;;;;;;13.70;9.47;;;;;;;8.25;99.68;95808.75;4918262;29;20472;-83
2022/12/04 01:17:46;;;;;;;12.67;9.10;;;;;;;8.21;99.29;95796.81;4918133;29;20451;-82
2022/12/04 01:20:13;;;;;;;10.53;7.53;;;;;;;8.19;99.32;95807.34;4918197;29;20499;-82
2022/12/04 01:22:40;;;;;;;10.00;8.80;;;;;;;8.19;99.24;95803.91;4918067;29;20447;-82
2022/12/04 01:25:08;;;;;;;16.43;10.10;;;;;;;8.18;99.46;95799.59;4917507;29;20448;-82
2022/12/04 01:27:36;;;;;;;12.90;9.00;;;;;;;8.20;98.82;95800.34;4918188;29;20499;-82
2022/12/04 01:30:04;;;;;;;12.33;7.17;;;;;;;8.20;97.98;95795.97;4918117;29;20503;-82
2022/12/04 01:32:31;;;;;;;9.33;6.90;;;;;;;8.27;97.15;95799.03;4918395;29;20511;-81
2022/12/04 01:34:58;;;;;;;12.80;7.40;;;;;;;8.29;97.02;95797.16;4917636;29;21246;-82
2022/12/04 01:37:24;;;;;;;12.20;8.67;;;;;;;8.24;97.26;95800.06;4917526;29;20455;-82
2022/12/04 01:39:51;;;;;;;8.17;7.03;;;;;;;8.19;97.59;95803.91;4917653;29;20456;-82
2022/12/04 01:42:18;;;;;;;6.03;5.43;;;;;;;8.20;97.54;95789.91;4917715;29;20543;-81
2022/12/04 01:45:18;;;;;;;11.20;7.00;;;;;;;8.29;97.84;95802.41;4917703;29;20849;-81
2022/12/04 01:47:46;;;;;;;10.47;7.00;;;;;;;8.35;97.22;95799.44;4917632;29;20488;-82
2022/12/04 01:50:13;;;;;;;7.83;5.97;;;;;;;8.35;96.84;95800.28;4917713;29;20450;-82
2022/12/04 01:52:40;;;;;;;7.67;5.00;;;;;;;8.40;96.74;95797.41;4917309;29;20543;-82
2022/12/04 01:55:08;;;;;;;4.40;4.00;;;;;;;8.13;96.93;95796.44;4917134;29;20533;-82
2022/12/04 01:57:37;;;;;;;4.33;3.83;;;;;;;8.21;96.96;95791.56;4917680;29;20447;-82
2022/12/04 02:00:08;;;;;;;8.27;6.63;;;;;;;8.25;96.70;95791.28;4917320;29;20448;-82
2022/12/04 02:02:37;;;;;;;12.83;8.63;;;;;;;8.25;96.92;95791.28;4917190;29;20471;-82
2022/12/04 02:05:09;;;;;;;9.50;7.70;;;;;;;8.21;98.06;95791.56;4917198;29;20456;-82
2022/12/04 02:07:37;;;;;;;10.50;7.40;;;;;;;8.27;97.06;95789.41;4917105;29;20499;-82
2022/12/04 02:10:05;;;;;;;5.70;5.13;;;;;;;8.27;96.61;95794.66;4899458;29;20456;-82
2022/12/04 02:12:36;;;;;;;5.27;3.50;;;;;;;8.27;96.07;95786.81;4917407;29;20463;-82
2022/12/04 02:15:10;;;;;;;5.63;4.20;;;;;;;8.29;96.36;95789.31;4917475;29;20452;-81
2022/12/04 02:17:43;;;;;;;5.47;4.37;;;;;;;8.03;96.89;95781.28;4917298;29;20455;-81
2022/12/04 02:20:21;;;;;;;3.50;3.20;;;;;;;8.10;96.95;95783.56;4918170;29;20455;-81
2022/12/04 02:23:07;;;;;;;3.77;3.47;;;;;;;7.72;98.17;95776.22;4918452;29;20467;-82
2022/12/04 02:25:43;;;;;;;4.17;3.73;;;;;;;7.88;98.12;95784.00;4917290;29;20523;-81
2022/12/04 02:28:18;;;;;;;3.40;3.10;;;;;;;7.75;98.73;95783.88;4917075;29;20995;-81
2022/12/04 02:30:46;;;;;;;4.37;3.50;;;;;;;7.92;98.12;95780.28;4899040;29;20455;-81
2022/12/04 02:33:20;;;;;;;2.70;2.50;;;;;;;7.84;97.38;95778.13;4883851;29;20456;-81
2022/12/04 02:35:51;;;;;;;3.63;3.30;;;;;;;7.94;97.61;95774.00;4916756;29;20458;-82
2022/12/04 02:38:23;;;;;;;7.90;7.10;;;;;;;7.95;98.13;95774.84;4916902;29;20459;-82
2022/12/04 02:40:54;;;;;;;9.50;7.60;;;;;;;7.78;98.55;95768.84;4916659;29;20452;-82
2022/12/04 02:43:26;;;;;;;9.30;6.00;;;;;;;7.93;98.65;95768.88;4917152;29;20459;-82
2022/12/04 02:45:59;;;;;;;7.00;6.30;;;;;;;7.94;98.33;95774.00;4917066;29;20456;-81
2022/12/04 02:48:28;;;;;;;7.27;6.57;;;;;;;8.00;98.39;95776.25;4916735;29;20524;-82
2022/12/04 02:50:58;;;;;;;3.80;3.40;;;;;;;7.83;97.62;95776.44;4916863;29;20452;-81
2022/12/04 02:53:28;;;;;;;3.40;3.10;;;;;;;7.65;98.31;95780.13;4916616;29;20506;-81
2022/12/04 02:55:59;;;;;;;3.00;2.70;;;;;;;7.54;99.01;95777.31;4916454;29;20817;-81
2022/12/04 02:58:31;;;;;;;3.17;2.60;;;;;;;7.76;98.74;95775.09;4916502;29;20894;-81
2022/12/04 03:01:02;;;;;;;2.90;2.70;;;;;;;7.89;98.07;95780.47;4916524;29;20478;-82
2022/12/04 03:03:31;;;;;;;3.67;3.37;;;;;;;8.01;97.74;95785.78;4916392;29;20966;-82
2022/12/04 03:06:02;;;;;;;2.80;2.60;;;;;;;8.11;97.02;95783.47;4916690;29;20478;-82
2022/12/04 03:08:33;;;;;;;3.83;3.00;;;;;;;8.06;96.35;95778.47;4916553;29;21006;-82
2022/12/04 03:11:01;;;;;;;3.27;3.07;;;;;;;7.87;96.93;95783.16;4916250;29;20457;-81
2022/12/04 03:13:36;;;;;;;2.87;2.40;;;;;;;7.59;97.38;95777.91;4916751;29;20458;-81
2022/12/04 03:16:09;;;;;;;3.23;2.93;;;;;;;7.53;98.49;95778.25;4916271;29;20459;-82
2022/12/04 03:18:40;;;;;;;3.80;3.50;;;;;;;7.43;99.00;95773.56;4916373;29;20819;-81
2022/12/04 03:21:12;;;;;;;3.37;3.07;;;;;;;7.51;99.22;95780.09;4916574;29;20821;-82
2022/12/04 03:23:44;;;;;;;2.70;2.50;;;;;;;7.50;98.93;95770.56;4916301;29;20452;-82
2022/12/04 03:26:20;;;;;;;5.10;3.30;;;;;;;7.42;98.56;95766.66;4916193;29;20489;-82
2022/12/04 03:28:54;;;;;;;2.70;2.50;;;;;;;7.51;98.85;95770.47;4916324;29;20498;-81
2022/12/04 03:31:30;;;;;;;2.53;2.33;;;;;;;7.44;98.58;95770.00;4916169;29;20459;-81
2022/12/04 03:34:00;;;;;;;3.87;3.57;;;;;;;7.54;98.27;95772.09;4916263;29;20450;-81
2022/12/04 03:36:31;;;;;;;2.87;2.60;;;;;;;7.61;98.25;95776.03;4916069;29;20463;-80
2022/12/04 03:39:01;;;;;;;4.20;2.93;;;;;;;7.55;98.37;95765.94;4916314;29;20808;-81
2022/12/04 03:41:33;;;;;;;3.43;3.13;;;;;;;7.67;97.69;95770.44;4916022;29;20455;-81
2022/12/04 03:44:08;;;;;;;2.80;2.43;;;;;;;7.58;98.23;95771.81;4916174;29;20577;-81
2022/12/04 03:46:39;;;;;;;3.33;2.93;;;;;;;7.48;97.95;95781.09;4915859;29;20941;-82
2022/12/04 03:49:12;;;;;;;3.27;2.97;;;;;;;7.54;98.06;95772.94;4919832;29;20483;-81
2022/12/04 03:51:44;;;;;;;4.97;2.90;;;;;;;7.63;98.38;95774.16;4919802;29;20538;-82
2022/12/04 03:54:15;;;;;;;2.87;2.67;;;;;;;7.52;98.24;95771.31;4919861;29;20467;-82
2022/12/04 03:56:47;;;;;;;2.67;2.47;;;;;;;7.45;98.57;95779.53;4920055;29;20455;-81
2022/12/04 03:59:20;;;;;;;2.87;2.67;;;;;;;7.21;99.78;95780.94;4919445;29;20474;-81
2022/12/04 04:01:51;;;;;;;4.17;3.27;;;;;;;7.23;99.79;95766.06;4919815;29;20457;-82
2022/12/04 04:04:22;;;;;;;2.70;2.50;;;;;;;7.14;100.00;95769.16;4919747;29;20463;-81
2022/12/04 04:06:53;;;;;;;3.70;3.40;;;;;;;7.09;99.81;95773.81;4919598;29;20478;-81
2022/12/04 04:09:24;;;;;;;2.63;2.33;;;;;;;7.22;99.88;95769.56;4919457;29;20957;-81
2022/12/04 04:11:57;;;;;;;3.07;2.87;;;;;;;7.41;99.08;95764.97;4919686;29;20458;-82
2022/12/04 04:25:47;;;;;;;3.20;2.90;;;;;;;7.63;97.00;95775.00;4853929;29;20489;-84
2022/12/04 04:28:28;;;;;;;3.23;2.90;;;;;;;7.69;96.58;95768.56;4878997;29;20576;-82
2022/12/04 04:31:13;;;;;;;3.33;3.03;;;;;;;7.75;96.43;95765.59;4879343;29;20458;-83
2022/12/04 04:33:48;;;;;;;3.37;3.07;;;;;;;7.62;96.76;95783.78;4877275;29;20537;-83
2022/12/04 04:36:23;;;;;;;3.80;3.50;;;;;;;7.56;97.41;95781.53;4877853;29;20536;-82
2022/12/04 04:38:58;;;;;;;5.00;3.73;;;;;;;7.44;97.77;95777.00;4877863;29;20948;-83
2022/12/04 04:41:33;;;;;;;3.43;3.00;;;;;;;7.33;98.09;95782.84;4878333;29;20461;-84
2022/12/04 04:44:09;;;;;;;3.77;3.30;;;;;;;7.26;98.53;95781.53;4878499;29;20447;-83
2022/12/04 04:46:42;;;;;;;3.37;3.07;;;;;;;7.34;98.07;95788.91;4878377;29;20456;-83
2022/12/04 04:49:12;;;;;;;4.70;3.07;;;;;;;7.21;99.11;95774.88;4878012;29;20500;-83
2022/12/04 04:51:39;;;;;;;4.10;3.20;;;;;;;7.08;100.00;95783.41;4878664;29;20946;-83
2022/12/04 04:54:10;;;;;;;3.37;3.07;;;;;;;6.91;100.00;95774.84;4878108;29;20459;-84
2022/12/04 04:56:41;;;;;;;6.20;3.93;;;;;;;6.88;100.00;95775.84;4878310;29;21022;-84
2022/12/04 04:59:07;;;;;;;4.47;4.13;;;;;;;6.86;100.00;95777.72;4883918;29;20461;-81
2022/12/04 05:01:35;;;;;;;3.90;3.60;;;;;;;6.78;100.00;95777.31;4918458;29;20456;-81
2022/12/04 05:04:05;;;;;;;5.97;3.60;;;;;;;6.97;100.00;95779.75;4918362;29;20457;-82
2022/12/04 05:06:32;;;;;;;5.03;3.97;;;;;;;6.81;100.00;95784.97;4917926;29;20447;-83
2022/12/04 05:08:59;;;;;;;5.07;4.20;;;;;;;6.87;100.00;95786.38;4909250;29;20861;-82
2022/12/04 05:11:26;;;;;;;3.97;3.67;;;;;;;6.83;100.00;95789.16;4908858;29;20455;-83
2022/12/04 05:13:53;;;;;;;3.73;3.43;;;;;;;6.73;100.00;95792.38;4904451;29;20525;-87
2022/12/04 05:16:20;;;;;;;3.97;3.67;;;;;;;6.84;100.00;95790.84;4916661;29;20461;-83
2022/12/04 05:21:29;;;;;;;6.43;3.97;;;;;;;7.06;100.00;95802.69;4911984;29;20503;-83
2022/12/04 05:23:56;;;;;;;3.20;2.90;;;;;;;7.00;100.00;95801.28;4914007;29;20454;-82
2022/12/04 05:26:23;;;;;;;3.50;3.20;;;;;;;6.99;100.00;95804.81;4917176;29;20455;-84
2022/12/04 05:28:50;;;;;;;3.40;3.10;;;;;;;7.17;99.99;95805.53;4914708;29;20843;-83
2022/12/04 05:31:17;;;;;;;6.80;4.47;;;;;;;7.28;98.81;95800.56;4916784;29;20452;-82
2022/12/04 05:33:44;;;;;;;8.90;6.40;;;;;;;7.21;99.12;95800.97;4895476;29;20456;-83
2022/12/04 05:36:12;;;;;;;8.17;6.37;;;;;;;7.18;99.66;95809.81;4915183;29;20461;-83
2022/12/04 05:38:40;;;;;;;9.57;6.83;;;;;;;7.27;99.14;95808.47;4916126;29;20965;-82
2022/12/04 05:41:07;;;;;;;14.77;8.83;;;;;;;7.40;98.25;95802.44;4914318;29;20947;-83
2022/12/04 05:43:34;;;;;;;10.23;7.87;;;;;;;7.47;98.16;95814.22;4882020;29;20452;-82
2022/12/04 05:46:02;;;;;;;11.37;9.27;;;;;;;7.47;97.78;95819.44;4915148;29;20443;-83
2022/12/04 05:48:29;;;;;;;11.33;9.00;;;;;;;7.45;97.61;95812.63;4916017;29;21013;-83
2022/12/04 05:50:56;;;;;;;12.53;9.30;;;;;;;7.39;97.73;95813.81;4917498;29;20462;-83
2022/12/04 05:53:23;;;;;;;10.50;8.13;;;;;;;7.38;97.86;95812.16;4917424;29;20510;-83
2022/12/04 05:56:02;;;;;;;11.90;8.10;;;;;;;7.39;98.07;95823.44;4917257;29;20958;-83
2022/12/04 05:58:29;;;;;;;8.77;7.33;;;;;;;7.34;97.91;95825.47;4917415;29;20782;-84
2022/12/04 06:00:56;;;;;;;18.60;14.50;;;;;;;7.37;97.77;95828.75;4917167;29;20453;-84
2022/12/04 06:03:23;;;;;;;25.60;18.90;;;;;;;7.39;97.96;95824.28;4917376;29;20452;-83
2022/12/04 06:05:50;;;;;;;33.43;20.60;;;;;;;7.30;98.25;95819.59;4917289;29;20484;-84
2022/12/04 06:08:17;;;;;;;24.93;15.63;;;;;;;7.40;98.49;95819.88;4917864;29;21699;-81
2022/12/04 06:10:43;;;;;;;15.87;11.40;;;;;;;7.30;98.27;95816.97;4918318;29;20452;-82
2022/12/04 06:13:12;;;;;;;22.83;14.07;;;;;;;7.32;98.19;95817.72;4918596;29;20443;-83
2022/12/04 06:15:39;;;;;;;21.23;12.90;;;;;;;7.36;100.00;95826.22;4918858;29;20969;-83
2022/12/04 06:18:07;;;;;;;11.80;7.77;;;;;;;7.44;100.00;95813.56;4918265;29;20824;-84
2022/12/04 06:20:34;;;;;;;8.30;6.70;;;;;;;7.50;98.89;95814.97;4917342;29;20781;-88
2022/12/04 06:23:01;;;;;;;10.20;6.73;;;;;;;7.53;98.28;95831.31;4885174;29;20456;-84
2022/12/04 06:25:28;;;;;;;6.70;6.00;;;;;;;7.53;97.83;95830.50;4884816;29;20458;-84
2022/12/04 06:27:55;;;;;;;7.73;6.50;;;;;;;7.53;97.87;95830.50;4917683;29;20494;-91
2022/12/04 06:30:23;;;;;;;7.90;5.90;;;;;;;7.55;97.62;95828.63;4917002;29;20482;-83
2022/12/04 06:32:50;;;;;;;8.10;6.07;;;;;;;7.59;97.62;95827.50;4880084;29;20822;-83
2022/12/04 06:35:17;;;;;;;16.40;11.00;;;;;;;7.51;97.52;95816.66;4905505;29;20460;-82
2022/12/04 06:37:44;;;;;;;16.77;12.70;;;;;;;7.46;97.60;95836.03;4917815;29;20463;-82
2022/12/04 06:40:11;;;;;;;11.47;8.73;;;;;;;7.37;98.86;95836.56;4917717;29;20478;-81
2022/12/04 06:42:38;;;;;;;11.50;8.30;;;;;;;7.34;98.96;95831.53;4917553;29;20473;-80
2022/12/04 06:45:06;;;;;;;6.60;5.90;;;;;;;7.45;99.00;95834.34;4916741;29;20455;-82
2022/12/04 06:47:36;;;;;;;8.60;6.60;;;;;;;7.19;99.07;95841.97;4917543;29;20486;-81
2022/12/04 06:50:03;;;;;;;8.53;6.40;;;;;;;7.29;99.39;95848.38;4916966;29;20578;-82
2022/12/04 06:52:33;;;;;;;4.03;3.70;;;;;;;7.09;100.00;95841.66;4916685;29;20487;-82
2022/12/04 06:55:00;;;;;;;7.03;5.00;;;;;;;7.17;100.00;95846.44;4916958;29;20496;-82
2022/12/04 06:57:27;;;;;;;6.57;4.33;;;;;;;7.19;100.00;95848.03;4916004;29;20460;-81
2022/12/04 06:59:54;;;;;;;6.27;4.90;;;;;;;7.25;99.88;95842.50;4916349;29;20942;-81
2022/12/04 07:02:21;;;;;;;4.20;3.50;;;;;;;7.16;99.91;95837.78;4917387;29;20455;-84
2022/12/04 07:04:49;;;;;;;6.90;4.17;;;;;;;7.18;99.94;95843.75;4917722;29;20839;-81
2022/12/04 07:07:16;;;;;;;6.03;4.83;;;;;;;7.16;100.00;95848.22;4899242;29;20463;-81
2022/12/04 07:09:43;;;;;;;5.73;4.90;;;;;;;7.15;100.00;95841.31;4919734;29;20476;-82
2022/12/04 07:12:09;;;;;;;5.87;4.97;;;;;;;7.29;100.00;95838.78;4918790;29;20451;-83
2022/12/04 07:14:36;;;;;;;6.47;5.77;;;;;;;7.37;100.00;95841.81;4917820;29;20529;-80
2022/12/04 07:17:03;;;;;;;5.33;4.30;;;;;;;7.31;100.00;95849.97;4914581;29;20473;-78
2022/12/04 07:19:30;;;;;;;7.07;5.90;;;;;;;7.38;100.00;95838.25;4916817;29;20470;-82
2022/12/04 07:21:58;;;;;;;6.10;5.00;;;;;;;7.38;100.00;95848.69;4912267;29;20820;-81
2022/12/04 07:24:25;;;;;;;5.87;5.27;;;;;;;7.43;99.80;95846.66;4916782;29;21111;-82
2022/12/04 07:26:52;;;;;;;5.70;4.90;;;;;;;7.72;100.00;95838.91;4913738;29;20966;-85
2022/12/04 07:29:19;;;;;;;5.97;4.70;;;;;;;7.87;100.00;95838.03;4898383;29;20500;-83
2022/12/04 07:31:46;;;;;;;6.63;5.23;;;;;;;8.04;97.88;95842.25;4916191;29;20877;-81
2022/12/04 07:34:12;;;;;;;5.30;4.80;;;;;;;7.94;96.92;95847.19;4916821;29;20470;-87
2022/12/04 07:36:40;;;;;;;10.03;4.80;;;;;;;8.00;96.15;95838.13;4916874;29;20448;-81
2022/12/04 07:39:09;;;;;;;6.90;5.00;;;;;;;7.92;97.00;95849.06;4916915;29;20494;-83
2022/12/04 07:41:36;;;;;;;6.73;6.00;;;;;;;7.96;96.36;95844.47;4883962;29;20455;-81
2022/12/04 07:44:02;;;;;;;6.33;4.50;;;;;;;8.02;96.93;95850.19;4917218;29;20439;-83
2022/12/04 07:46:29;;;;;;;9.43;5.33;;;;;;;8.08;96.34;95868.09;4899250;29;20460;-81
2022/12/04 07:48:57;;;;;;;8.00;5.70;;;;;;;8.13;96.35;95861.78;4915104;29;20495;-83
2022/12/04 07:51:27;;;;;;;7.00;5.00;;;;;;;8.08;96.18;95855.03;4915373;29;20950;-81
2022/12/04 07:53:56;;;;;;;11.17;5.07;;;;;;;8.17;95.15;95856.28;4915930;29;20471;-81
2022/12/04 07:56:24;;;;;;;8.03;5.87;;;;;;;8.16;95.46;95845.91;4915891;29;20451;-81
2022/12/04 07:58:51;;;;;;;8.33;4.70;;;;;;;8.14;95.67;95845.16;4915859;29;20452;-82
2022/12/04 08:01:21;;;;;;;8.47;5.87;;;;;;;8.35;95.68;95839.50;4915963;29;20939;-81
2022/12/04 08:03:50;;;;;;;6.57;5.50;;;;;;;8.37;93.72;95849.88;4897815;29;20463;-82
2022/12/04 08:06:18;;;;;;;9.00;4.70;;;;;;;8.46;93.26;95846.72;4915849;29;20479;-81
2022/12/04 08:08:45;;;;;;;7.47;4.50;;;;;;;8.49;93.43;95856.97;4915786;29;20487;-81
2022/12/04 08:11:14;;;;;;;5.00;4.00;;;;;;;8.59;92.35;95862.47;4915761;29;20448;-81
2022/12/04 08:13:42;;;;;;;6.40;3.90;;;;;;;8.71;91.79;95853.88;4915888;29;20459;-80
2022/12/04 08:16:11;;;;;;;8.50;5.07;;;;;;;8.74;91.23;95850.25;4915763;29;20530;-80
2022/12/04 08:18:38;;;;;;;4.87;4.20;;;;;;;8.66;91.01;95846.31;4915454;29;20435;-80
2022/12/04 08:21:07;;;;;;;4.97;4.03;;;;;;;8.62;90.19;95844.81;4915387;29;20452;-80
2022/12/04 08:23:34;;;;;;;6.27;4.30;;;;;;;8.54;89.01;95857.53;4915689;29;20854;-80
2022/12/04 08:26:02;;;;;;;3.97;3.57;;;;;;;8.72;89.13;95847.72;4897861;29;20459;-80
2022/12/04 08:28:29;;;;;;;4.33;3.93;;;;;;;8.74;88.62;95847.63;4915784;29;20479;-81
2022/12/04 08:31:02;;;;;;;7.83;4.07;;;;;;;8.84;87.79;95839.09;4915472;29;20463;-82
2022/12/04 08:33:29;;;;;;;4.57;4.00;;;;;;;9.06;87.93;95838.59;4916847;29;20462;-81
2022/12/04 08:35:56;;;;;;;4.70;4.00;;;;;;;9.07;87.07;95837.66;4901666;29;20455;-82
2022/12/04 08:38:23;;;;;;;8.03;4.57;;;;;;;8.94;87.17;95839.34;4919169;29;20467;-81
2022/12/04 08:40:50;;;;;;;6.37;4.47;;;;;;;9.20;87.18;95842.94;4919063;29;20448;-81
2022/12/04 08:43:16;;;;;;;5.87;4.00;;;;;;;9.41;86.53;95844.16;4919525;29;20554;-81
2022/12/04 08:45:43;;;;;;;6.10;4.47;;;;;;;9.59;85.81;95848.22;4918900;29;20456;-81
2022/12/04 08:48:11;;;;;;;14.17;8.47;;;;;;;9.62;85.45;95841.94;4918969;29;20895;-81
2022/12/04 08:50:45;;;;;;;4.20;3.80;;;;;;;9.72;85.17;95847.41;4919198;29;20831;-81
2022/12/04 08:53:11;;;;;;;10.20;7.70;;;;;;;9.58;84.49;95840.47;4918825;29;21013;-81
2022/12/04 08:55:38;;;;;;;9.40;5.83;;;;;;;9.54;85.29;95852.06;4918684;29;20462;-81
2022/12/04 08:58:05;;;;;;;9.70;6.40;;;;;;;9.54;85.62;95838.97;4918736;29;20535;-81
2022/12/04 09:00:32;;;;;;;6.20;4.40;;;;;;;9.35;85.17;95835.88;4918605;29;20466;-81
2022/12/04 09:02:59;;;;;;;7.17;4.83;;;;;;;9.27;85.43;95831.16;4919049;29;20455;-81
2022/12/04 09:05:27;;;;;;;6.57;4.87;;;;;;;9.22;86.06;95827.94;4919070;29;20448;-81
2022/12/04 09:07:54;;;;;;;5.20;4.07;;;;;;;9.21;86.74;95832.34;4918576;29;21010;-81
2022/12/04 09:10:20;;;;;;;4.77;4.17;;;;;;;9.11;87.10;95820.78;4918410;29;20496;-81
2022/12/04 09:12:47;;;;;;;7.30;3.40;;;;;;;9.15;86.98;95824.91;4918511;29;20448;-81
2022/12/04 09:15:14;;;;;;;4.63;4.13;;;;;;;9.18;87.10;95824.69;4918268;29;20452;-80
2022/12/04 09:17:41;;;;;;;4.23;3.80;;;;;;;9.15;87.17;95814.41;4900910;29;20456;-81
2022/12/04 09:20:09;;;;;;;3.67;3.37;;;;;;;9.07;87.85;95816.69;4918403;29;20966;-81
2022/12/04 09:22:38;;;;;;;4.60;4.20;;;;;;;9.01;88.08;95817.09;4918316;29;20449;-81
2022/12/04 09:25:06;;;;;;;5.30;3.83;;;;;;;8.91;89.61;95803.72;4918150;29;20532;-82
2022/12/04 09:27:36;;;;;;;4.90;4.37;;;;;;;8.92;89.29;95802.78;4917889;29;20487;-81
2022/12/04 09:30:04;;;;;;;5.33;3.60;;;;;;;9.03;89.70;95796.06;4918113;29;20610;-81
2022/12/04 09:32:30;;;;;;;3.97;3.57;;;;;;;9.00;89.32;95797.09;4918205;29;20466;-80
2022/12/04 09:34:57;;;;;;;6.33;4.83;;;;;;;8.92;88.82;95800.19;4918106;29;20472;-82
2022/12/04 09:37:24;;;;;;;4.93;4.47;;;;;;;8.92;89.61;95801.97;4918058;29;20449;-81
2022/12/04 09:39:52;;;;;;;9.33;4.40;;;;;;;9.04;89.41;95803.81;4918062;29;20460;-81
2022/12/04 09:42:38;;;;;;;5.10;4.60;;;;;;;9.14;91.29;95789.19;4909816;29;20469;-79
2022/12/04 09:45:11;;;;;;;5.53;4.60;;;;;;;11.58;100.00;95781.81;4897813;29;20985;-85
2022/12/04 09:47:42;;;;;;;4.40;4.00;;;;;;;13.10;99.65;95788.41;4899424;29;20463;-85
2022/12/04 09:50:16;;;;;;;4.10;3.70;;;;;;;14.14;80.32;95796.47;4900734;29;20899;-85
2022/12/04 09:52:54;;;;;;;5.70;3.90;;;;;;;14.79;76.70;95787.41;4899979;29;20933;-80
2022/12/04 09:55:27;;;;;;;5.03;4.53;;;;;;;13.85;69.62;95775.19;4899447;29;20467;-84
2022/12/04 09:57:58;;;;;;;5.90;4.20;;;;;;;13.15;71.61;95773.06;4908063;29;20980;-85
2022/12/04 10:00:26;;;;;;;5.00;4.17;;;;;;;12.32;74.73;95762.13;4918296;29;20957;-81
2022/12/04 10:02:58;;;;;;;11.13;7.73;;;;;;;11.92;76.20;95764.38;4919030;29;20436;-83
2022/12/04 10:05:42;;;;;;;12.63;6.90;;;;;;;11.24;79.09;95752.75;4918389;29;20454;-84
2022/12/04 10:08:16;;;;;;;13.40;8.60;;;;;;;10.92;81.28;95751.66;4885257;29;20456;-80
2022/12/04 10:10:54;;;;;;;7.57;5.40;;;;;;;10.78;81.73;95740.38;4918591;29;20850;-83
2022/12/04 10:13:41;;;;;;;5.00;4.40;;;;;;;10.45;83.06;95735.75;4918697;29;20450;-83
2022/12/04 10:16:14;;;;;;;4.40;4.00;;;;;;;10.14;84.34;95723.91;4918401;29;20525;-83
2022/12/04 10:18:52;;;;;;;5.43;3.73;;;;;;;10.03;84.96;95725.56;4918374;29;20545;-80
2022/12/04 10:21:42;;;;;;;4.90;4.40;;;;;;;9.84;86.07;95721.63;4918099;29;20968;-84
2022/12/04 10:24:30;;;;;;;6.37;4.70;;;;;;;9.74;87.85;95725.78;4917673;29;20450;-82
2022/12/04 10:27:06;;;;;;;4.87;4.37;;;;;;;9.65;88.09;95709.88;4917815;29;20439;-83
2022/12/04 10:29:36;;;;;;;5.70;4.63;;;;;;;9.72;87.76;95719.81;4918535;29;20901;-82
2022/12/04 10:32:14;;;;;;;5.90;4.50;;;;;;;9.71;86.58;95714.69;4918111;29;20983;-82
2022/12/04 10:34:41;;;;;;;6.10;5.23;;;;;;;9.73;86.08;95713.63;4917829;29;20440;-83
2022/12/04 10:37:13;;;;;;;5.50;4.40;;;;;;;9.69;86.80;95714.78;4900770;29;20462;-81
2022/12/04 10:39:45;;;;;;;7.20;4.87;;;;;;;9.51;86.28;95706.38;4917871;29;20472;-84
2022/12/04 10:42:25;;;;;;;6.80;5.37;;;;;;;9.37;87.22;95700.41;4917840;29;20823;-82
2022/12/04 10:44:52;;;;;;;4.43;4.00;;;;;;;9.26;87.52;95707.22;4917730;29;20503;-82
2022/12/04 10:47:22;;;;;;;6.20;4.57;;;;;;;9.27;87.53;95701.03;4918177;29;20444;-81
2022/12/04 10:50:01;;;;;;;4.70;4.30;;;;;;;9.23;86.94;95698.69;4917545;29;20491;-83
2022/12/04 10:52:28;;;;;;;5.73;5.13;;;;;;;9.27;87.65;95700.19;4917886;29;20949;-82
2022/12/04 10:54:59;;;;;;;6.10;5.27;;;;;;;9.23;87.22;95704.78;4917566;29;20541;-82
2022/12/04 10:57:38;;;;;;;6.00;5.27;;;;;;;9.23;87.26;95698.69;4916954;29;20864;-82
2022/12/04 11:00:24;;;;;;;6.93;5.43;;;;;;;9.18;87.26;95700.78;4900826;29;20461;-80
2022/12/04 11:02:52;;;;;;;5.73;4.13;;;;;;;8.97;87.54;95703.91;4881824;29;20488;-81
2022/12/04 11:05:26;;;;;;;5.63;4.70;;;;;;;9.00;87.75;95702.84;4898850;29;20433;-82
2022/12/04 11:07:56;;;;;;;7.37;5.47;;;;;;;8.95;88.86;95697.91;4898818;29;20480;-82
2022/12/04 11:10:28;;;;;;;6.67;4.60;;;;;;;8.95;89.12;95699.69;4898568;29;20517;-82
2022/12/04 11:12:58;;;;;;;5.90;4.90;;;;;;;8.96;88.15;95698.72;4896855;29;20500;-82
2022/12/04 11:15:29;;;;;;;7.50;5.93;;;;;;;9.00;87.79;95689.78;4898608;29;20438;-81
2022/12/04 11:18:06;;;;;;;5.90;5.00;;;;;;;8.90;88.09;95686.06;4898622;29;20452;-83
2022/12/04 11:20:34;;;;;;;11.37;8.27;;;;;;;9.00;87.98;95692.38;4865953;29;20455;-81
2022/12/04 11:23:02;;;;;;;9.90;5.70;;;;;;;8.97;88.90;95684.75;4898587;29;20491;-82
2022/12/04 11:25:37;;;;;;;5.97;5.37;;;;;;;8.91;88.41;95699.03;4865971;29;20864;-82
2022/12/04 11:28:06;;;;;;;6.50;4.67;;;;;;;8.88;88.61;95703.63;4898432;29;20535;-82
2022/12/04 11:30:37;;;;;;;6.03;5.13;;;;;;;8.80;89.51;95698.91;4898115;29;20569;-82
2022/12/04 11:33:08;;;;;;;5.50;4.90;;;;;;;8.76;89.67;95700.06;4898276;29;20971;-81
2022/12/04 11:35:36;;;;;;;8.73;6.00;;;;;;;8.74;90.03;95699.31;4916131;29;20456;-82
2022/12/04 11:38:08;;;;;;;7.20;6.27;;;;;;;8.76;89.70;95692.19;4917690;29;20927;-83
2022/12/04 11:40:38;;;;;;;8.80;6.40;;;;;;;8.82;89.81;95688.34;4917282;29;20463;-82
2022/12/04 11:43:14;;;;;;;7.03;5.70;;;;;;;8.80;88.93;95693.69;4884459;29;20876;-84
2022/12/04 11:45:42;;;;;;;9.03;6.90;;;;;;;8.76;89.59;95688.75;4917287;29;20455;-81
2022/12/04 11:48:16;;;;;;;5.90;5.30;;;;;;;8.79;89.66;95694.63;4917700;29;20539;-82
2022/12/04 11:50:51;;;;;;;7.60;6.00;;;;;;;8.78;90.03;95702.56;4917238;29;20488;-82
2022/12/04 11:53:25;;;;;;;7.40;6.00;;;;;;;8.73;89.86;95704.66;4899206;29;21106;-81
2022/12/04 11:56:23;;;;;;;7.40;5.30;;;;;;;8.69;90.04;95707.47;4916967;29;20898;-82
2022/12/04 11:59:18;;;;;;;6.70;6.10;;;;;;;8.74;90.17;95711.56;4916347;29;20819;-81
2022/12/04 12:01:52;;;;;;;9.90;8.40;;;;;;;8.65;89.78;95713.81;4886895;29;20507;-82
2022/12/04 12:04:44;;;;;;;7.73;5.70;;;;;;;8.57;90.71;95708.22;4923256;29;20523;-81
2022/12/04 12:07:29;;;;;;;7.90;5.80;;;;;;;8.47;91.25;95699.31;4814633;29;20488;-81